FBSK

Sir Seretse Khama International Airport

Airport
ICAO code
FBSK
IATA Code
GBE
Summary
ICAO Region
AFI
ICAO Territory
Location

Gaborone, Gaberone

Serving
Gaborone
Elevation
3299 ft
Coordinates
24° 33' 21" S , 25° 55' 8" E
KCC
Metar
FBSK 231900Z 34001KT CAVOK 20/12 Q1020 NOSIG

International airport serving the city of Goborone, Botswana.

Climatology

Hot, semi-arid/Steppe climate (Köppen climate classification BSh)

Runways

Designator Length Width Surface Rops
8/26 3000 45 CON Yes/Yes

Airport map

Aerial View

SKYbrary Partners:

Safety knowledge contributed by: